Time;durP1;ratioP1;P1;durP2;ratioP2;P2;SDS_P1;SDS_P2;PMS_P1;PMS_P2;Temp;Humidity;BMP_temperature;BMP_pressure;BME280_temperature;BME280_humidity;BME280_pressure;Samples;Min_cycle;Max_cycle;Signal;HPM_P1;HPM_P2
2023/10/01 00:00:43;;;;;;;15.97;10.63;;;11.80;99.90;;;;;;5067481;28;20198;-78
2023/10/01 00:03:11;;;;;;;17.40;13.67;;;11.70;99.90;;;;;;5062898;28;20639;-77
2023/10/01 00:05:41;;;;;;;15.30;11.03;;;11.70;99.90;;;;;;5068259;28;20220;-76
2023/10/01 00:08:12;;;;;;;14.93;9.73;;;11.70;99.90;;;;;;5050885;28;20197;-78
2023/10/01 00:10:41;;;;;;;14.10;9.57;;;11.60;99.90;;;;;;5065770;28;20192;-78
2023/10/01 00:13:08;;;;;;;15.80;9.93;;;11.60;99.90;;;;;;5063273;28;20271;-77
2023/10/01 00:15:37;;;;;;;14.33;9.83;;;11.60;99.90;;;;;;5072737;28;20193;-77
2023/10/01 00:18:05;;;;;;;13.37;9.60;;;11.60;99.90;;;;;;5060005;28;20203;-78
2023/10/01 00:20:35;;;;;;;15.67;9.57;;;11.60;99.90;;;;;;5071587;28;20203;-77
2023/10/01 00:23:03;;;;;;;15.57;10.17;;;11.60;99.90;;;;;;5068015;28;20229;-77
2023/10/01 00:25:31;;;;;;;14.63;9.40;;;11.60;99.90;;;;;;5078785;28;20222;-77
2023/10/01 00:27:58;;;;;;;12.37;9.10;;;11.60;99.90;;;;;;5061632;28;20346;-78
2023/10/01 00:30:26;;;;;;;12.20;8.40;;;11.60;99.90;;;;;;5056574;28;20195;-77
2023/10/01 00:32:55;;;;;;;16.30;8.60;;;11.60;99.90;;;;;;5064937;28;20202;-77
2023/10/01 00:35:22;;;;;;;13.83;8.47;;;11.60;99.90;;;;;;5077316;28;20616;-77
2023/10/01 00:37:51;;;;;;;14.10;8.60;;;11.60;99.90;;;;;;5058528;28;20198;-77
2023/10/01 00:40:18;;;;;;;12.60;8.80;;;11.60;99.90;;;;;;5061829;28;20232;-77
2023/10/01 00:42:45;;;;;;;13.07;9.10;;;11.60;99.90;;;;;;5071583;28;20199;-77
2023/10/01 00:45:14;;;;;;;11.77;8.10;;;11.50;99.90;;;;;;5081043;28;20243;-77
2023/10/01 00:47:42;;;;;;;11.80;7.73;;;11.50;99.90;;;;;;5065035;28;20202;-78
2023/10/01 00:50:12;;;;;;;12.43;8.27;;;11.40;99.90;;;;;;5063044;28;20203;-78
2023/10/01 00:52:40;;;;;;;13.97;9.20;;;11.40;99.90;;;;;;5083044;28;20213;-77
2023/10/01 00:55:11;;;;;;;13.77;8.27;;;11.40;99.90;;;;;;5060122;28;20271;-77
2023/10/01 00:57:39;;;;;;;13.50;8.97;;;11.40;99.90;;;;;;5070001;28;20792;-77
2023/10/01 01:00:12;;;;;;;15.80;9.43;;;11.40;99.90;;;;;;5067652;28;20476;-76
2023/10/01 01:02:46;;;;;;;16.80;10.00;;;11.40;99.90;;;;;;5063907;28;20205;-78
2023/10/01 01:05:23;;;;;;;12.50;8.43;;;11.40;99.90;;;;;;5063711;28;20285;-77
2023/10/01 01:07:50;;;;;;;11.50;8.17;;;11.30;99.90;;;;;;5060214;28;20195;-77
2023/10/01 01:10:20;;;;;;;14.00;8.37;;;11.30;99.90;;;;;;5065819;28;20205;-77
2023/10/01 01:12:47;;;;;;;12.20;8.07;;;11.20;99.90;;;;;;5065876;28;20212;-77
2023/10/01 01:15:14;;;;;;;12.97;8.33;;;11.20;99.90;;;;;;5064287;28;20292;-77
2023/10/01 01:17:43;;;;;;;13.87;8.53;;;11.20;99.90;;;;;;5068024;28;20202;-77
2023/10/01 01:20:13;;;;;;;12.57;9.00;;;11.10;99.90;;;;;;5059650;28;20204;-78
2023/10/01 01:22:49;;;;;;;12.47;8.33;;;11.10;99.90;;;;;;5064915;28;20191;-77
2023/10/01 01:25:20;;;;;;;10.73;8.40;;;11.10;99.90;;;;;;5069054;28;20205;-77
2023/10/01 01:27:47;;;;;;;12.83;8.57;;;11.10;99.90;;;;;;5066674;28;20215;-77
2023/10/01 01:30:19;;;;;;;13.83;8.90;;;11.00;99.90;;;;;;5047346;28;20198;-77
2023/10/01 01:32:53;;;;;;;13.07;8.23;;;11.00;99.90;;;;;;5070060;28;20273;-77
2023/10/01 01:35:27;;;;;;;13.47;8.80;;;11.00;99.90;;;;;;5062918;28;20204;-77
2023/10/01 01:37:56;;;;;;;12.07;8.57;;;10.90;99.90;;;;;;5067064;28;20248;-77
2023/10/01 01:40:26;;;;;;;10.73;7.97;;;10.90;99.90;;;;;;5067186;28;20204;-77
2023/10/01 01:42:56;;;;;;;15.60;10.10;;;10.90;99.90;;;;;;5068277;28;20650;-77
2023/10/01 01:45:27;;;;;;;16.47;8.97;;;10.90;99.90;;;;;;5067220;28;20202;-77
2023/10/01 01:47:55;;;;;;;13.47;8.83;;;10.90;99.90;;;;;;5065911;28;20204;-77
2023/10/01 01:50:26;;;;;;;11.57;8.27;;;10.90;99.90;;;;;;5053665;28;20198;-77
2023/10/01 01:52:56;;;;;;;15.37;10.83;;;10.90;99.90;;;;;;5066105;28;20196;-77
2023/10/01 01:55:26;;;;;;;14.43;10.30;;;10.90;99.90;;;;;;5081876;28;20199;-77
2023/10/01 02:01:01;;;;;;;15.17;11.20;;;10.80;99.90;;;;;;5081331;28;20229;-77
2023/10/01 02:03:27;;;;;;;14.20;11.27;;;10.80;99.90;;;;;;5074199;28;20223;-76
2023/10/01 02:05:54;;;;;;;14.57;11.57;;;10.80;99.90;;;;;;5054385;28;20696;-77
2023/10/01 02:08:25;;;;;;;12.47;11.10;;;10.80;99.90;;;;;;5064259;28;20199;-77
2023/10/01 02:11:04;;;;;;;13.87;11.67;;;10.80;99.90;;;;;;5066457;28;20253;-77
2023/10/01 02:13:32;;;;;;;15.10;11.97;;;10.70;99.90;;;;;;5071334;28;20242;-77
2023/10/01 02:16:18;;;;;;;16.17;12.77;;;10.70;99.90;;;;;;5069145;28;20671;-77
2023/10/01 02:18:55;;;;;;;15.57;11.70;;;10.70;99.90;;;;;;5068817;28;20599;-78
2023/10/01 02:21:42;;;;;;;12.93;10.67;;;10.70;99.90;;;;;;5068433;28;20612;-77
2023/10/01 02:24:11;;;;;;;14.87;11.67;;;10.70;99.90;;;;;;5082080;28;20218;-76
2023/10/01 02:26:39;;;;;;;18.77;12.30;;;10.70;99.90;;;;;;5062851;28;20212;-77
2023/10/01 02:29:06;;;;;;;15.67;11.77;;;10.70;99.90;;;;;;5086041;28;20259;-77
2023/10/01 02:31:35;;;;;;;14.10;11.03;;;10.60;99.90;;;;;;5062953;28;20205;-79
2023/10/01 02:34:02;;;;;;;15.13;11.00;;;10.60;99.90;;;;;;5058835;28;20227;-78
2023/10/01 02:36:30;;;;;;;12.63;11.03;;;10.60;99.90;;;;;;5072235;28;20223;-77
2023/10/01 02:38:56;;;;;;;15.53;11.30;;;10.60;99.90;;;;;;5068640;28;20206;-77
2023/10/01 02:41:25;;;;;;;15.00;11.97;;;10.50;99.90;;;;;;5065815;28;20195;-77
2023/10/01 02:43:53;;;;;;;13.77;10.97;;;10.50;99.90;;;;;;5086849;28;20310;-77
2023/10/01 02:46:26;;;;;;;15.40;11.67;;;10.50;99.90;;;;;;5084514;28;20211;-77
2023/10/01 02:48:54;;;;;;;13.63;10.90;;;10.50;99.90;;;;;;5078609;28;20563;-78
2023/10/01 02:51:32;;;;;;;12.63;10.60;;;10.50;99.90;;;;;;5064209;28;20202;-80
2023/10/01 02:54:03;;;;;;;13.67;10.93;;;10.50;99.90;;;;;;5058249;28;20309;-77
2023/10/01 02:56:32;;;;;;;14.23;12.00;;;10.40;99.90;;;;;;5068611;28;20187;-77
2023/10/01 02:59:09;;;;;;;13.93;11.63;;;10.40;99.90;;;;;;5084863;28;20203;-78
2023/10/01 03:01:38;;;;;;;13.23;11.23;;;10.40;99.90;;;;;;5058391;28;20283;-78
2023/10/01 03:04:08;;;;;;;13.50;11.90;;;10.30;99.90;;;;;;5051480;28;20223;-79
2023/10/01 03:06:35;;;;;;;13.53;12.23;;;10.30;99.90;;;;;;5059217;28;20279;-78
2023/10/01 03:09:04;;;;;;;14.10;12.63;;;10.30;99.90;;;;;;5080960;28;20705;-79
2023/10/01 03:11:40;;;;;;;11.37;10.17;;;10.30;99.90;;;;;;5056830;28;20265;-80
2023/10/01 03:14:20;;;;;;;11.57;8.50;;;10.20;99.90;;;;;;5059227;28;20235;-80
2023/10/01 03:16:53;;;;;;;12.63;8.97;;;10.20;99.90;;;;;;5070559;28;20222;-79
2023/10/01 03:19:25;;;;;;;12.83;10.23;;;10.20;99.90;;;;;;5066108;28;20299;-79
2023/10/01 03:22:22;;;;;;;12.17;9.80;;;10.20;99.90;;;;;;5054333;28;20229;-79
2023/10/01 03:24:49;;;;;;;13.27;11.03;;;10.10;99.90;;;;;;5061176;28;20731;-79
2023/10/01 03:27:26;;;;;;;11.20;9.93;;;10.10;99.90;;;;;;5048772;28;20227;-78
2023/10/01 03:30:04;;;;;;;10.80;9.73;;;10.10;99.90;;;;;;5056528;28;20191;-80
2023/10/01 03:32:32;;;;;;;12.53;10.57;;;10.10;99.90;;;;;;5065984;28;20252;-79
2023/10/01 03:35:06;;;;;;;11.77;10.37;;;10.10;99.90;;;;;;5063594;28;20633;-80
2023/10/01 03:37:38;;;;;;;12.70;11.03;;;10.10;99.90;;;;;;5057523;28;20214;-79
2023/10/01 03:40:15;;;;;;;14.13;11.07;;;10.00;99.90;;;;;;5056962;28;20203;-80
2023/10/01 03:42:50;;;;;;;12.47;9.60;;;10.00;99.90;;;;;;5061114;28;20712;-78
2023/10/01 03:45:51;;;;;;;12.70;9.90;;;10.00;99.90;;;;;;5050876;28;20222;-76
2023/10/01 03:48:19;;;;;;;12.57;10.27;;;10.10;99.90;;;;;;5052184;28;20194;-79
2023/10/01 03:50:47;;;;;;;12.83;10.90;;;10.00;99.90;;;;;;5053018;28;20193;-79
2023/10/01 03:53:18;;;;;;;12.33;10.03;;;10.00;99.90;;;;;;5053787;28;20220;-79
2023/10/01 03:55:46;;;;;;;15.83;10.77;;;10.00;99.90;;;;;;5057519;28;20192;-80
2023/10/01 03:58:25;;;;;;;11.03;9.63;;;10.00;99.90;;;;;;5056615;28;20631;-80
2023/10/01 04:00:54;;;;;;;12.53;9.57;;;10.00;99.90;;;;;;5051636;28;20206;-79
2023/10/01 04:03:22;;;;;;;12.40;10.57;;;10.00;99.90;;;;;;5062949;28;20223;-79
2023/10/01 04:05:49;;;;;;;14.60;10.70;;;10.00;99.90;;;;;;5079789;28;20221;-80
2023/10/01 04:08:16;;;;;;;13.83;10.97;;;10.00;99.90;;;;;;5066654;28;20232;-81
2023/10/01 04:10:48;;;;;;;13.60;10.77;;;10.00;99.90;;;;;;5085950;28;20582;-77
2023/10/01 04:13:20;;;;;;;14.00;9.67;;;10.00;99.90;;;;;;5070190;28;20230;-77
2023/10/01 04:15:49;;;;;;;15.83;11.13;;;10.00;99.90;;;;;;5058066;28;20190;-77
2023/10/01 04:18:21;;;;;;;14.10;10.93;;;9.90;99.90;;;;;;5057205;28;20203;-77
2023/10/01 04:21:17;;;;;;;14.03;11.23;;;9.90;99.90;;;;;;5075773;28;20202;-77
2023/10/01 04:23:40;;;;;;;14.00;11.03;;;9.90;99.90;;;;;;5075547;28;20250;-78
2023/10/01 04:26:13;;;;;;;14.40;10.50;;;9.90;99.90;;;;;;5070004;28;20620;-76
2023/10/01 04:28:44;;;;;;;14.13;11.30;;;9.90;99.90;;;;;;5086696;28;20256;-77
2023/10/01 04:31:15;;;;;;;13.87;11.30;;;9.90;99.90;;;;;;5066967;28;20206;-76
2023/10/01 04:33:47;;;;;;;13.20;11.03;;;9.90;99.90;;;;;;5081863;28;20591;-77
2023/10/01 04:36:16;;;;;;;13.50;11.20;;;9.90;99.90;;;;;;5067974;28;20226;-77
2023/10/01 04:38:44;;;;;;;11.87;10.20;;;9.90;99.90;;;;;;5085854;28;20543;-77
2023/10/01 04:41:15;;;;;;;13.27;10.17;;;9.90;99.90;;;;;;5050501;28;20244;-78
2023/10/01 04:43:51;;;;;;;13.63;10.37;;;9.90;99.90;;;;;;5058380;28;20241;-80
2023/10/01 04:46:20;;;;;;;11.30;9.93;;;9.90;99.90;;;;;;5088636;28;20226;-81
2023/10/01 04:48:50;;;;;;;12.40;9.73;;;9.90;99.90;;;;;;5071321;28;20218;-81
2023/10/01 04:51:21;;;;;;;14.50;11.23;;;9.90;99.90;;;;;;5069350;28;20223;-80
2023/10/01 04:53:48;;;;;;;11.20;9.73;;;9.90;99.90;;;;;;5071945;28;20222;-79
2023/10/01 04:56:20;;;;;;;11.40;9.50;;;9.90;99.90;;;;;;5047404;28;20557;-79
2023/10/01 04:58:51;;;;;;;12.90;10.10;;;9.90;99.90;;;;;;5047393;28;20219;-80
2023/10/01 05:01:23;;;;;;;15.17;10.00;;;9.90;99.90;;;;;;5054916;28;20666;-79
2023/10/01 05:03:52;;;;;;;13.37;10.70;;;10.00;99.90;;;;;;5063199;28;20769;-79
2023/10/01 05:06:20;;;;;;;12.27;10.87;;;10.00;99.90;;;;;;5051407;28;20280;-80
2023/10/01 05:08:52;;;;;;;15.50;10.73;;;10.00;99.90;;;;;;5054650;28;20191;-79
2023/10/01 05:11:21;;;;;;;14.50;10.53;;;10.10;99.90;;;;;;5056542;28;20191;-80
2023/10/01 05:13:51;;;;;;;16.17;12.37;;;10.10;99.90;;;;;;5049130;28;20425;-79
2023/10/01 05:16:26;;;;;;;13.27;10.53;;;10.10;99.90;;;;;;5054477;28;20211;-78
2023/10/01 05:19:09;;;;;;;14.93;10.80;;;10.20;99.90;;;;;;5072415;28;20194;-77
2023/10/01 05:21:46;;;;;;;15.90;11.40;;;10.20;99.90;;;;;;5052742;28;20214;-79
2023/10/01 05:24:15;;;;;;;14.87;11.50;;;10.20;99.90;;;;;;5048984;28;20268;-79
2023/10/01 05:26:44;;;;;;;14.13;11.33;;;10.30;99.90;;;;;;5055539;28;20230;-78
2023/10/01 05:29:13;;;;;;;15.90;11.20;;;10.30;99.90;;;;;;5084702;28;20248;-81
2023/10/01 05:31:41;;;;;;;15.07;11.47;;;10.30;99.90;;;;;;5075316;28;20731;-83
2023/10/01 05:34:11;;;;;;;13.47;10.27;;;10.30;99.90;;;;;;5061549;28;20418;-77
2023/10/01 05:36:42;;;;;;;15.13;11.10;;;10.30;99.90;;;;;;5053814;28;20199;-82
2023/10/01 05:39:11;;;;;;;14.93;10.53;;;10.30;99.90;;;;;;5045481;28;20281;-79
2023/10/01 05:41:44;;;;;;;14.87;11.27;;;10.40;99.90;;;;;;5069503;28;20224;-78
2023/10/01 05:44:12;;;;;;;16.40;11.53;;;10.40;99.90;;;;;;5074001;28;20253;-78
2023/10/01 05:46:40;;;;;;;17.53;12.20;;;10.40;99.90;;;;;;5073988;28;20213;-78
2023/10/01 05:49:08;;;;;;;14.73;11.60;;;10.40;99.90;;;;;;5076487;28;20198;-78
2023/10/01 05:51:44;;;;;;;15.07;12.23;;;10.50;99.90;;;;;;5076787;28;20201;-79
2023/10/01 05:54:18;;;;;;;16.37;12.43;;;10.50;99.90;;;;;;5078713;28;20218;-78
2023/10/01 05:56:47;;;;;;;17.93;13.33;;;10.50;99.90;;;;;;5071990;28;20197;-79
2023/10/01 05:59:16;;;;;;;16.20;11.77;;;10.50;99.90;;;;;;5080733;28;20649;-78
2023/10/01 06:01:43;;;;;;;17.87;13.53;;;10.60;99.90;;;;;;5069924;28;20200;-78
2023/10/01 06:04:12;;;;;;;17.63;13.70;;;10.60;99.90;;;;;;5091924;28;20220;-78
2023/10/01 06:06:42;;;;;;;16.37;12.90;;;10.70;99.90;;;;;;5076600;28;20285;-79
2023/10/01 06:09:14;;;;;;;14.33;12.50;;;10.70;99.90;;;;;;5075784;28;20198;-79
2023/10/01 06:11:51;;;;;;;14.43;11.90;;;10.70;99.90;;;;;;5079272;28;20686;-77
2023/10/01 06:17:05;;;;;;;14.40;11.77;;;10.80;99.90;;;;;;5077278;28;20218;-79
2023/10/01 06:19:33;;;;;;;13.97;11.30;;;10.90;99.90;;;;;;5080123;28;20201;-77
2023/10/01 06:22:13;;;;;;;16.00;13.33;;;11.00;99.90;;;;;;5078561;28;20296;-78
2023/10/01 06:24:42;;;;;;;14.60;12.33;;;11.10;99.90;;;;;;5074234;28;20234;-77
2023/10/01 06:27:12;;;;;;;14.93;12.70;;;11.20;99.90;;;;;;5073125;28;20218;-79
2023/10/01 06:29:49;;;;;;;16.87;14.37;;;11.30;99.90;;;;;;5073117;28;20584;-78
2023/10/01 06:32:18;;;;;;;16.23;14.03;;;11.40;99.90;;;;;;5085685;28;20261;-79
2023/10/01 06:34:46;;;;;;;12.03;8.47;;;11.40;99.90;;;;;;5077665;28;20223;-79
2023/10/01 06:37:15;;;;;;;16.83;14.07;;;11.50;99.90;;;;;;5075456;28;20622;-79
2023/10/01 06:39:43;;;;;;;16.63;14.23;;;11.60;99.90;;;;;;5088897;28;20196;-78
2023/10/01 06:42:19;;;;;;;10.97;8.13;;;11.70;99.90;;;;;;5090564;28;20201;-79
2023/10/01 06:44:49;;;;;;;12.73;8.43;;;11.80;99.90;;;;;;5076770;28;20251;-79
2023/10/01 06:47:16;;;;;;;12.20;8.70;;;11.80;99.90;;;;;;5073696;28;20705;-79
2023/10/01 06:49:56;;;;;;;12.37;8.73;;;11.90;99.90;;;;;;5080887;28;20301;-79
2023/10/01 06:52:26;;;;;;;12.90;9.63;;;11.90;99.90;;;;;;5071952;28;20203;-77
2023/10/01 06:54:55;;;;;;;13.93;8.43;;;12.00;99.90;;;;;;5074749;28;20228;-79
2023/10/01 06:57:23;;;;;;;12.43;11.03;;;12.10;99.90;;;;;;5074964;28;20185;-79
2023/10/01 06:59:50;;;;;;;14.07;9.10;;;12.20;99.90;;;;;;5086675;28;20206;-79
2023/10/01 07:02:20;;;;;;;15.27;9.27;;;12.40;99.90;;;;;;5067565;28;20677;-79
2023/10/01 07:04:56;;;;;;;15.23;12.80;;;12.70;99.90;;;;;;5074430;28;20215;-79
2023/10/01 07:07:26;;;;;;;12.90;8.20;;;13.00;99.90;;;;;;5078872;28;20206;-79
2023/10/01 07:09:56;;;;;;;13.07;9.20;;;13.40;99.90;;;;;;5078942;28;20195;-80
2023/10/01 07:12:24;;;;;;;14.30;11.47;;;13.70;99.90;;;;;;5076833;28;20205;-79
2023/10/01 07:14:51;;;;;;;12.07;9.47;;;14.00;99.90;;;;;;5075402;28;20222;-79
2023/10/01 07:17:23;;;;;;;16.37;9.73;;;14.40;99.90;;;;;;5072292;28;20205;-80
2023/10/01 07:19:59;;;;;;;14.10;8.80;;;14.70;99.90;;;;;;5078458;28;20572;-78
2023/10/01 07:22:30;;;;;;;14.40;10.13;;;15.10;99.90;;;;;;5093020;28;20200;-79
2023/10/01 07:24:59;;;;;;;13.70;9.57;;;15.40;99.90;;;;;;5090289;28;20233;-78
2023/10/01 07:27:27;;;;;;;15.93;13.73;;;15.70;99.90;;;;;;5075424;28;20568;-79
2023/10/01 07:29:54;;;;;;;16.10;14.03;;;16.00;99.90;;;;;;5069737;28;20193;-78
2023/10/01 07:32:24;;;;;;;16.60;14.80;;;16.30;99.90;;;;;;5075637;28;20231;-79
2023/10/01 07:34:55;;;;;;;17.23;13.40;;;16.50;99.90;;;;;;5089068;28;20227;-79
2023/10/01 07:37:26;;;;;;;17.73;11.07;;;16.80;99.90;;;;;;5093152;28;20235;-80
2023/10/01 07:39:59;;;;;;;19.57;10.13;;;17.10;99.90;;;;;;5092423;28;20234;-80
2023/10/01 07:42:27;;;;;;;15.57;13.83;;;17.50;99.90;;;;;;5075420;28;20209;-80
2023/10/01 07:44:56;;;;;;;13.80;9.10;;;17.80;99.90;;;;;;5072995;28;20661;-80
2023/10/01 07:47:29;;;;;;;13.57;8.77;;;18.00;99.90;;;;;;5092040;28;20219;-78
2023/10/01 07:49:58;;;;;;;15.10;9.23;;;18.30;99.90;;;;;;5074827;28;20192;-79
2023/10/01 07:52:24;;;;;;;16.23;8.90;;;18.60;99.90;;;;;;5077669;28;20214;-80
2023/10/01 07:54:51;;;;;;;13.40;9.30;;;18.70;99.90;;;;;;5061521;28;20221;-79
2023/10/01 07:57:27;;;;;;;14.80;11.23;;;19.00;99.90;;;;;;5053446;28;20190;-80
2023/10/01 07:59:54;;;;;;;14.67;11.33;;;19.20;99.90;;;;;;5078358;28;20204;-80
2023/10/01 08:02:21;;;;;;;11.63;8.20;;;19.30;99.90;;;;;;5078051;28;20701;-78
2023/10/01 08:04:57;;;;;;;14.73;8.80;;;19.50;99.90;;;;;;5075546;28;20217;-80
2023/10/01 08:07:30;;;;;;;12.63;8.33;;;19.50;99.90;;;;;;5075159;28;20206;-79
2023/10/01 08:09:59;;;;;;;13.80;8.97;;;19.80;99.90;;;;;;5072794;28;20264;-80
2023/10/01 08:13:04;;;;;;;15.40;12.20;;;20.00;99.90;;;;;;5092308;28;20218;-80
2023/10/01 08:15:37;;;;;;;13.67;8.50;;;20.00;99.90;;;;;;5099250;22;20222;-77
2023/10/01 08:20:57;;;;;;;12.13;8.27;;;19.80;99.90;;;;;;5067230;28;20301;-75
2023/10/01 08:23:25;;;;;;;13.13;7.80;;;19.90;99.90;;;;;;5070197;28;20201;-75
2023/10/01 08:25:54;;;;;;;14.97;9.10;;;20.10;99.90;;;;;;5067639;28;20191;-76
2023/10/01 08:28:29;;;;;;;12.70;9.07;;;20.20;99.90;;;;;;5071162;28;20214;-76
2023/10/01 08:31:20;;;;;;;14.33;9.00;;;20.10;99.90;;;;;;5070839;28;20194;-76
2023/10/01 08:33:51;;;;;;;15.07;10.17;;;20.30;99.90;;;;;;5067021;28;20210;-76
2023/10/01 08:36:24;;;;;;;16.77;10.57;;;20.30;99.90;;;;;;5058863;28;20679;-77
2023/10/01 08:41:35;;;;;;;14.03;9.10;;;20.40;99.90;;;;;;5067166;28;20191;-77
2023/10/01 08:44:11;;;;;;;15.43;12.57;;;20.90;99.90;;;;;;5067052;28;20222;-77
2023/10/01 08:46:40;;;;;;;13.50;8.83;;;21.10;99.90;;;;;;5067994;28;20186;-76
2023/10/01 08:49:22;;;;;;;14.20;8.63;;;20.90;99.90;;;;;;5065007;28;20210;-77
2023/10/01 08:51:53;;;;;;;15.07;9.13;;;21.30;99.90;;;;;;5063346;28;20227;-77
2023/10/01 08:54:24;;;;;;;13.87;8.73;;;21.40;99.90;;;;;;5067602;28;20211;-77
2023/10/01 08:56:53;;;;;;;15.07;8.77;;;21.60;99.90;;;;;;5067232;28;20202;-78
2023/10/01 08:59:27;;;;;;;14.23;9.43;;;21.70;99.90;;;;;;5070927;28;20194;-77
2023/10/01 09:01:55;;;;;;;12.10;8.63;;;21.70;99.90;;;;;;5068752;28;20571;-77
2023/10/01 09:04:44;;;;;;;13.80;9.47;;;22.00;99.90;;;;;;5064231;28;20231;-77
2023/10/01 09:07:18;;;;;;;11.70;8.30;;;22.00;99.90;;;;;;5064464;28;20198;-76
2023/10/01 09:10:06;;;;;;;14.50;8.53;;;22.10;99.90;;;;;;5064282;28;20792;-83
2023/10/01 09:12:35;;;;;;;14.97;10.30;;;22.40;99.90;;;;;;5062628;28;20197;-78
2023/10/01 09:15:04;;;;;;;12.47;8.93;;;22.50;99.90;;;;;;5070342;28;20309;-78
2023/10/01 09:17:40;;;;;;;11.77;8.37;;;22.70;99.90;;;;;;5073083;28;20767;-79
2023/10/01 09:20:17;;;;;;;13.10;8.83;;;22.90;99.90;;;;;;5082616;28;20322;-82
2023/10/01 09:23:00;;;;;;;14.50;8.60;;;23.00;99.90;;;;;;5075942;28;20216;-77
2023/10/01 09:25:26;;;;;;;14.13;9.13;;;22.90;99.90;;;;;;5058825;28;20218;-79
2023/10/01 09:27:59;;;;;;;14.63;12.60;;;22.60;99.90;;;;;;5097792;28;20210;-78
2023/10/01 09:30:31;;;;;;;14.37;11.90;;;22.60;99.90;;;;;;5076827;28;20295;-81
2023/10/01 09:33:04;;;;;;;13.13;9.17;;;22.40;99.90;;;;;;5061605;28;20204;-77
2023/10/01 09:35:42;;;;;;;14.83;11.93;;;22.50;99.90;;;;;;5063560;28;20940;-78
2023/10/01 09:38:11;;;;;;;13.50;11.83;;;22.60;99.90;;;;;;5061322;28;20321;-78
2023/10/01 09:40:41;;;;;;;13.27;11.87;;;22.80;99.90;;;;;;5061715;28;20578;-77
2023/10/01 09:43:18;;;;;;;13.67;12.20;;;22.90;99.90;;;;;;5080784;28;20197;-77
2023/10/01 09:45:47;;;;;;;15.00;13.00;;;22.90;99.90;;;;;;5086415;28;20221;-80
2023/10/01 09:48:29;;;;;;;14.20;12.50;;;22.80;99.90;;;;;;5040345;28;20591;-81
2023/10/01 09:51:07;;;;;;;14.70;11.97;;;22.90;99.90;;;;;;5053901;28;20284;-81
2023/10/01 09:53:47;;;;;;;15.20;12.40;;;23.00;99.90;;;;;;5054805;28;20794;-80
2023/10/01 09:56:25;;;;;;;13.97;11.90;;;22.90;99.90;;;;;;5071463;28;20205;-81
2023/10/01 09:58:58;;;;;;;13.53;11.20;;;22.80;99.90;;;;;;5053170;28;20194;-81
2023/10/01 10:01:28;;;;;;;13.97;10.77;;;22.80;99.90;;;;;;5071363;28;20194;-80
2023/10/01 10:03:59;;;;;;;12.80;11.37;;;22.80;99.90;;;;;;5053136;28;20223;-80
2023/10/01 10:06:26;;;;;;;13.40;11.03;;;22.60;99.90;;;;;;5071160;28;20256;-81
2023/10/01 10:09:03;;;;;;;12.10;7.60;;;22.30;99.90;;;;;;5071309;28;20615;-80
2023/10/01 10:11:36;;;;;;;11.60;9.73;;;22.20;99.90;;;;;;5058555;28;20642;-80
2023/10/01 10:14:28;;;;;;;13.53;11.27;;;22.30;99.90;;;;;;5052518;28;20363;-80
2023/10/01 10:16:58;;;;;;;14.43;10.67;;;22.40;99.90;;;;;;5063801;28;20260;-80
2023/10/01 10:19:25;;;;;;;12.40;10.67;;;22.50;99.90;;;;;;5071508;28;20195;-80
2023/10/01 10:22:12;;;;;;;12.50;11.13;;;22.60;99.90;;;;;;5071084;28;20195;-80
2023/10/01 10:24:45;;;;;;;12.97;10.87;;;22.60;99.90;;;;;;5050084;28;20221;-80
2023/10/01 10:27:17;;;;;;;11.50;10.40;;;22.60;99.90;;;;;;5052944;28;20199;-80
2023/10/01 10:30:15;;;;;;;13.87;11.77;;;22.50;99.90;;;;;;5054249;28;20268;-80
2023/10/01 10:33:42;;;;;;;15.67;11.40;;;22.30;99.90;;;;;;5050641;28;20199;-79
2023/10/01 10:36:51;;;;;;;14.80;11.37;;;22.30;99.90;;;;;;5055054;28;20202;-80
2023/10/01 10:40:02;;;;;;;13.03;10.80;;;22.30;99.90;;;;;;5075690;28;20451;-79
2023/10/01 10:42:28;;;;;;;13.53;11.43;;;22.40;99.90;;;;;;4995026;28;20275;-76
2023/10/01 10:45:21;;;;;;;11.73;10.53;;;22.30;99.90;;;;;;4996634;28;20768;-76
2023/10/01 10:47:59;;;;;;;13.47;10.17;;;22.30;99.90;;;;;;5052332;28;20206;-76
2023/10/01 10:50:48;;;;;;;12.83;7.87;;;22.30;99.90;;;;;;5055655;28;20204;-76
2023/10/01 10:53:16;;;;;;;12.67;8.00;;;22.10;99.90;;;;;;5074901;28;20214;-76
2023/10/01 10:56:02;;;;;;;13.37;7.87;;;22.00;99.90;;;;;;5076867;28;20293;-76
2023/10/01 10:58:31;;;;;;;14.13;8.17;;;21.90;99.90;;;;;;5074332;28;20649;-76
2023/10/01 11:01:15;;;;;;;11.47;7.20;;;21.80;99.90;;;;;;5074258;28;20212;-76
2023/10/01 11:03:45;;;;;;;12.57;10.87;;;21.70;99.90;;;;;;5074191;28;20434;-76
2023/10/01 11:06:20;;;;;;;15.13;12.13;;;21.70;99.90;;;;;;5085921;28;20218;-76
2023/10/01 11:08:51;;;;;;;15.40;11.73;;;21.60;99.90;;;;;;5056414;28;20214;-79
2023/10/01 11:11:27;;;;;;;12.77;11.23;;;21.60;99.90;;;;;;5086317;28;20749;-80
2023/10/01 11:14:00;;;;;;;14.33;11.57;;;21.60;99.90;;;;;;5055851;28;20229;-80
2023/10/01 11:16:37;;;;;;;13.33;11.60;;;21.50;99.90;;;;;;5066621;28;20195;-79
2023/10/01 11:19:16;;;;;;;12.03;10.83;;;21.50;99.90;;;;;;5073369;28;20248;-79
2023/10/01 11:21:54;;;;;;;13.60;11.23;;;21.60;99.90;;;;;;5056295;28;20202;-79
2023/10/01 11:24:29;;;;;;;13.47;11.50;;;21.70;99.90;;;;;;5073618;28;20631;-79
2023/10/01 11:27:22;;;;;;;14.47;11.13;;;21.80;99.90;;;;;;5058749;28;20199;-79
2023/10/01 11:30:16;;;;;;;13.43;11.43;;;21.90;99.90;;;;;;5067743;28;20719;-79
2023/10/01 11:32:58;;;;;;;13.73;11.67;;;21.80;99.90;;;;;;5055659;28;20647;-79
2023/10/01 11:35:33;;;;;;;12.97;10.37;;;21.70;99.90;;;;;;5058843;28;20248;-79
2023/10/01 11:38:03;;;;;;;12.80;8.57;;;21.70;99.90;;;;;;5055037;28;20562;-79
2023/10/01 11:41:06;;;;;;;13.67;8.20;;;21.50;99.90;;;;;;5072007;28;20205;-80
2023/10/01 11:43:27;;;;;;;16.07;11.27;;;21.40;99.90;;;;;;5058022;28;20201;-79
2023/10/01 11:46:23;;;;;;;14.00;10.97;;;21.50;99.90;;;;;;5057378;28;20664;-76
2023/10/01 11:48:57;;;;;;;14.47;10.30;;;21.50;99.90;;;;;;5073262;28;20252;-76
2023/10/01 11:51:36;;;;;;;12.17;7.63;;;21.50;99.90;;;;;;5074966;28;20190;-76
2023/10/01 11:54:09;;;;;;;12.47;8.10;;;21.60;99.90;;;;;;5074550;28;20246;-76
2023/10/01 11:56:37;;;;;;;11.97;7.50;;;21.60;99.90;;;;;;5056907;28;20203;-76
2023/10/01 11:59:08;;;;;;;11.87;7.50;;;21.60;99.90;;;;;;5074885;28;20195;-76
2023/10/01 12:01:47;;;;;;;12.30;7.17;;;21.70;99.90;;;;;;5069045;28;20275;-76
2023/10/01 12:04:21;;;;;;;11.83;7.33;;;21.60;99.90;;;;;;5072347;28;20249;-76
2023/10/01 12:06:59;;;;;;;10.77;7.07;;;21.60;99.90;;;;;;5068495;28;20237;-76
2023/10/01 12:09:35;;;;;;;12.57;7.50;;;21.60;99.90;;;;;;5074366;28;20218;-76
2023/10/01 12:12:08;;;;;;;11.50;7.30;;;21.70;99.90;;;;;;5056962;28;20634;-76
2023/10/01 12:14:52;;;;;;;11.77;7.23;;;21.80;99.90;;;;;;5066996;28;20241;-76
2023/10/01 12:17:23;;;;;;;15.03;7.63;;;21.80;99.90;;;;;;5064465;28;20285;-76
2023/10/01 12:19:51;;;;;;;13.83;7.97;;;21.80;99.90;;;;;;5056067;28;20199;-76
2023/10/01 12:22:23;;;;;;;12.50;7.47;;;21.70;99.90;;;;;;5076024;28;20202;-76
2023/10/01 12:24:56;;;;;;;10.33;7.00;;;21.70;99.90;;;;;;5072068;28;20218;-82
2023/10/01 12:27:41;;;;;;;12.23;7.40;;;21.70;99.90;;;;;;5075496;28;20205;-76
2023/10/01 12:30:27;;;;;;;10.57;7.07;;;21.80;99.90;;;;;;5070571;28;20775;-76
2023/10/01 12:33:00;;;;;;;11.73;7.50;;;21.90;99.90;;;;;;5076476;28;20194;-76
2023/10/01 12:35:29;;;;;;;12.70;7.67;;;21.90;99.90;;;;;;5057789;28;20274;-77
2023/10/01 12:40:52;;;;;;;13.20;7.63;;;21.90;99.90;;;;;;5073082;28;20264;-76
2023/10/01 12:43:39;;;;;;;10.97;7.40;;;21.90;99.90;;;;;;5057598;28;20202;-76
2023/10/01 12:46:13;;;;;;;12.37;7.27;;;21.90;99.90;;;;;;5064547;28;20205;-76
2023/10/01 12:49:14;;;;;;;10.30;6.83;;;21.80;99.90;;;;;;5073748;28;20274;-76
2023/10/01 12:51:33;;;;;;;11.90;7.37;;;21.80;99.90;;;;;;5074716;28;20194;-79
2023/10/01 12:54:06;;;;;;;12.37;7.60;;;21.90;99.90;;;;;;5061540;28;20228;-76
2023/10/01 12:56:44;;;;;;;11.17;6.67;;;21.90;99.90;;;;;;5050923;28;20190;-76
2023/10/01 12:59:18;;;;;;;10.63;6.77;;;22.00;99.90;;;;;;5088045;28;20568;-76
2023/10/01 13:01:50;;;;;;;10.97;6.93;;;22.00;99.90;;;;;;5079751;28;20424;-76
2023/10/01 13:04:22;;;;;;;10.80;6.57;;;22.00;99.90;;;;;;5092321;28;20745;-76
2023/10/01 13:06:49;;;;;;;10.80;6.20;;;21.90;99.90;;;;;;5053887;28;20203;-76
2023/10/01 13:09:53;;;;;;;8.93;6.33;;;21.90;99.90;;;;;;5064039;28;20302;-76
2023/10/01 13:12:24;;;;;;;12.37;7.47;;;22.00;99.90;;;;;;5073436;28;20201;-76
2023/10/01 13:17:38;;;;;;;13.13;7.80;;;22.00;99.90;;;;;;5081098;28;20194;-76
2023/10/01 13:20:18;;;;;;;13.40;8.27;;;22.10;99.90;;;;;;5054176;28;20632;-76